METAR Data
IDs: Format: Raw Decoded Include TAF

Data at: 0528 UTC 19 Aug 2019

KDEQ 190453Z AUTO 08003KT 10SM CLR 26/26 A2992 RMK AO1 SLP124 T02610256
KDEQ 190442Z AUTO 05003KT 10SM FEW002 26/26 A2992 RMK AO1 T02610256
KDEQ 190353Z AUTO 06003KT 10SM CLR 26/26 A2991 RMK AO1 SLP122 T02610256
KDEQ 190253Z AUTO 00000KT 10SM CLR 27/26 A2989 RMK AO1 SLP116 T02670261 53020
KDEQ 190153Z AUTO 00000KT 10SM CLR 27/26 A2986 RMK AO1 SLP105 T02720261
KDEQ 190053Z AUTO 13003KT 10SM CLR 31/26 A2984 RMK AO1 SLP097 T03110256
KDEQ 182353Z AUTO 19004KT 10SM CLR 34/24 A2983 RMK AO1 SLP095 T03390239 10356 20333 56014
KDEQ 182253Z AUTO 18005KT 10SM CLR 34/24 A2984 RMK AO1 SLP097 T03440239
KDEQ 182153Z AUTO 18006KT 10SM CLR 34/23 A2985 RMK AO1 SLP103 T03440233
KDEQ 182053Z AUTO 13006KT 10SM CLR 34/23 A2988 RMK AO1 SLP110 T03440233 58015
KDEQ 181953Z AUTO 14006KT 10SM CLR 35/23 A2991 RMK AO1 SLP122 T03500233
KDEQ 181853Z AUTO 18006KT 10SM SCT043 34/24 A2991 RMK AO1 SLP121 T03390239
KDEQ 181753Z AUTO VRB06KT 10SM SCT041 33/23 A2992 RMK AO1 SLP125 T03330233 10339 20239 58002
KDEQ 181653Z AUTO 18006KT 10SM FEW038 33/23 A2993 RMK AO1 SLP128 T03280233
KDEQ 181553Z AUTO 24007KT 10SM CLR 32/24 A2993 RMK AO1 SLP128 T03170239
KDEQ 181453Z AUTO 28005KT 10SM FEW017 29/25 A2993 RMK AO1 SLP127 T02940250 53017
KDEQ 181444Z AUTO 24006KT 10SM SCT017 29/25 A2992 RMK AO1 T02940250
KDEQ 181419Z AUTO 30005KT 10SM BKN017 28/26 A2993 RMK AO1 T02830256
KDEQ 181353Z AUTO 23005KT 10SM BKN011 27/26 A2991 RMK AO1 SLP122 T02720256
KDEQ 181336Z AUTO VRB03KT 10SM BKN010 27/26 A2990 RMK AO1 T02720256
KDEQ 181253Z AUTO 16003KT 9SM CLR 26/25 A2987 RMK AO1 SLP108 T02610250
KDEQ 181153Z AUTO 08003KT 5SM BR CLR 24/24 A2987 RMK AO1 SLP109 T02390239 10278 20239 53003
KDEQ 181053Z AUTO 00000KT 7SM CLR 24/24 A2987 RMK AO1 SLP107 T02390239
KDEQ 180953Z AUTO 00000KT 9SM CLR 24/24 A2987 RMK AO1 SLP106 T02390239
KDEQ 180853Z AUTO 11004KT 10SM CLR 24/24 A2986 RMK AO1 SLP106 T02440239 52001
KDEQ 180753Z AUTO 00000KT 10SM CLR 26/24 A2986 RMK AO1 SLP103 T02560239
KDEQ 180653Z AUTO 00000KT 10SM FEW065 27/24 A2987 RMK AO1 SLP109 T02720239
KDEQ 180553Z AUTO 15004KT 10SM CLR 28/23 A2986 RMK AO1 SLP105 T02780233 10339 20278 403670211 51008
KDEQ 180453Z AUTO 13005KT 10SM CLR 28/23 A2986 RMK AO1 SLP105 T02830233
KDEQ 180353Z AUTO 16009G15KT 10SM FEW070 29/23 A2986 RMK AO1 SLP106 T02940233
KDEQ 180253Z AUTO 11003KT 10SM SCT070 29/24 A2984 RMK AO1 SLP098 T02940239 53012
KDEQ 180153Z AUTO 12004KT 10SM CLR 30/24 A2982 RMK AO1 SLP091 T03000239
KDEQ 180053Z AUTO 13003KT 10SM CLR 32/24 A2980 RMK AO1 SLP087 T03170239
KDEQ 172353Z AUTO 15005KT 10SM CLR 34/23 A2980 RMK AO1 SLP087 T03390233 10367 20333 56010
KDEQ 172253Z AUTO 12005KT 10SM FEW055 35/23 A2981 RMK AO1 SLP089 T03500228
KDEQ 172153Z AUTO 14005KT 10SM CLR 34/23 A2982 RMK AO1 SLP093 T03390228
KDEQ 172053Z AUTO 12006KT 10SM BKN055 35/23 A2984 RMK AO1 SLP096 T03500233 56019
KDEQ 171953Z AUTO 17007KT 10SM FEW048 35/23 A2985 RMK AO1 SLP101 T03500228
KDEQ 171853Z AUTO 20008KT 10SM FEW045 35/23 A2987 RMK AO1 SLP107 T03500233
KDEQ 171753Z AUTO 19005KT 10SM SCT040 34/24 A2989 RMK AO1 SLP116 T03390239 10339 20217 58008